createdAt,value
2022-10-05T00:00:22.283Z,7.53
2022-10-05T00:02:50.633Z,8.03
2022-10-05T00:05:23.036Z,8.17
2022-10-05T00:07:51.045Z,7.63
2022-10-05T00:10:21.091Z,7.30
2022-10-05T00:12:49.500Z,8.13
2022-10-05T00:15:19.056Z,7.97
2022-10-05T00:17:47.025Z,8.10
2022-10-05T00:20:19.752Z,7.13
2022-10-05T00:22:47.877Z,8.13
2022-10-05T00:25:17.639Z,8.23
2022-10-05T00:27:47.863Z,7.37
2022-10-05T00:30:17.198Z,7.97
2022-10-05T00:32:45.428Z,7.93
2022-10-05T00:35:13.807Z,8.40
2022-10-05T00:37:42.104Z,8.17
2022-10-05T00:40:14.238Z,8.00
2022-10-05T00:42:49.089Z,7.70
2022-10-05T00:45:20.541Z,7.23
2022-10-05T00:47:53.742Z,8.13
2022-10-05T00:50:28.236Z,8.13
2022-10-05T00:52:59.392Z,7.27
2022-10-05T00:55:33.416Z,7.63
2022-10-05T00:58:08.608Z,7.47
2022-10-05T01:00:42.692Z,7.70
2022-10-05T01:03:13.655Z,11.60
2022-10-05T01:05:48.152Z,8.43
2022-10-05T01:08:20.234Z,8.20
2022-10-05T01:10:52.025Z,7.07
2022-10-05T01:13:25.645Z,7.23
2022-10-05T01:15:57.097Z,7.60
2022-10-05T01:18:29.349Z,7.40
2022-10-05T01:21:01.420Z,6.97
2022-10-05T01:23:55.848Z,7.13
2022-10-05T01:26:34.294Z,6.90
2022-10-05T01:29:06.344Z,6.77
2022-10-05T01:31:36.437Z,7.20
2022-10-05T01:34:11.448Z,6.43
2022-10-05T01:36:43.555Z,6.67
2022-10-05T01:39:16.347Z,7.17
2022-10-05T01:41:47.560Z,7.97
2022-10-05T01:44:17.969Z,6.73
2022-10-05T01:46:50.288Z,7.13
2022-10-05T01:49:32.599Z,7.10
2022-10-05T01:52:06.666Z,6.97
2022-10-05T01:54:39.728Z,7.50
2022-10-05T01:57:20.683Z,7.00
2022-10-05T01:59:57.117Z,7.93
2022-10-05T02:02:25.626Z,7.47
2022-10-05T02:05:01.909Z,7.10
2022-10-05T02:07:31.932Z,6.40
2022-10-05T02:10:00.888Z,7.90
2022-10-05T02:12:30.031Z,7.40
2022-10-05T02:15:02.480Z,7.13
2022-10-05T02:17:33.844Z,7.27
2022-10-05T02:20:04.177Z,6.90
2022-10-05T02:22:34.180Z,7.60
2022-10-05T02:25:03.957Z,7.50
2022-10-05T02:27:34.502Z,7.30
2022-10-05T02:30:05.488Z,7.87
2022-10-05T02:32:36.728Z,8.20
2022-10-05T02:35:08.662Z,9.00
2022-10-05T02:37:44.716Z,8.00
2022-10-05T02:40:19.266Z,8.77
2022-10-05T02:42:52.792Z,8.63
2022-10-05T02:45:28.441Z,10.53
2022-10-05T02:48:01.817Z,10.17
2022-10-05T02:50:34.069Z,10.40
2022-10-05T02:53:08.837Z,10.00
2022-10-05T02:55:41.354Z,9.33
2022-10-05T02:58:13.644Z,8.77
2022-10-05T03:00:46.562Z,8.70
2022-10-05T03:03:19.133Z,9.13
2022-10-05T03:05:49.541Z,8.63
2022-10-05T03:08:19.628Z,7.83
2022-10-05T03:10:54.000Z,7.63
2022-10-05T03:13:26.718Z,8.10
2022-10-05T03:16:09.576Z,7.90
2022-10-05T03:18:45.571Z,7.67
2022-10-05T03:21:19.437Z,8.20
2022-10-05T03:23:54.738Z,7.57
2022-10-05T03:26:30.035Z,7.43
2022-10-05T03:29:01.572Z,7.83
2022-10-05T03:31:33.069Z,7.17
2022-10-05T03:34:05.946Z,7.40
2022-10-05T03:36:38.426Z,7.03
2022-10-05T03:39:09.532Z,6.80
2022-10-05T03:41:42.417Z,6.97
2022-10-05T03:44:16.444Z,7.97
2022-10-05T03:46:55.318Z,7.97
2022-10-05T03:49:29.073Z,7.37
2022-10-05T03:52:00.773Z,7.73
2022-10-05T03:54:31.504Z,7.17
2022-10-05T03:57:02.105Z,7.13
2022-10-05T03:59:32.836Z,7.13
2022-10-05T04:02:02.718Z,7.13
2022-10-05T04:04:34.593Z,8.20
2022-10-05T04:07:02.965Z,8.27
2022-10-05T04:09:33.496Z,7.63
2022-10-05T04:12:05.415Z,7.33
2022-10-05T04:14:35.711Z,7.53
2022-10-05T04:17:06.278Z,7.23
2022-10-05T04:19:38.407Z,8.00
2022-10-05T04:22:09.747Z,7.07
2022-10-05T04:24:40.961Z,7.17
2022-10-05T04:27:12.361Z,7.67
2022-10-05T04:29:42.560Z,7.23
2022-10-05T04:32:17.965Z,7.10
2022-10-05T04:34:55.041Z,7.90
2022-10-05T04:37:25.130Z,7.70
2022-10-05T04:39:59.184Z,6.63
2022-10-05T04:42:30.115Z,7.33
2022-10-05T04:45:10.799Z,6.90
2022-10-05T04:47:49.189Z,7.10
2022-10-05T04:50:24.452Z,6.50
2022-10-05T04:52:59.445Z,7.37
2022-10-05T04:55:30.366Z,7.13
2022-10-05T04:58:02.542Z,7.53
2022-10-05T05:00:35.296Z,7.40
2022-10-05T05:03:15.904Z,7.47
2022-10-05T05:06:15.368Z,8.27
2022-10-05T05:08:43.075Z,8.57
2022-10-05T05:11:24.724Z,8.27
2022-10-05T05:14:08.568Z,9.67
2022-10-05T05:16:38.773Z,9.47
2022-10-05T05:19:30.101Z,9.30
2022-10-05T05:22:03.617Z,9.10
2022-10-05T05:24:38.734Z,9.97
2022-10-05T05:27:26.122Z,10.30
2022-10-05T05:29:58.790Z,9.77
2022-10-05T05:32:32.320Z,9.20
2022-10-05T05:35:06.929Z,10.50
2022-10-05T05:37:40.259Z,9.97
2022-10-05T05:40:13.730Z,10.40
2022-10-05T05:42:46.917Z,9.90
2022-10-05T05:45:17.942Z,9.30
2022-10-05T05:47:52.108Z,10.43
2022-10-05T05:50:28.148Z,10.63
2022-10-05T05:53:00.458Z,9.90
2022-10-05T05:55:30.806Z,9.80
2022-10-05T05:58:01.552Z,9.73
2022-10-05T06:00:31.582Z,9.10
2022-10-05T06:03:03.558Z,9.60
2022-10-05T06:05:33.359Z,9.27
2022-10-05T06:08:05.502Z,9.23
2022-10-05T06:10:37.490Z,9.10
2022-10-05T06:13:07.750Z,8.20
2022-10-05T06:15:37.906Z,7.50
2022-10-05T06:18:10.841Z,7.67
2022-10-05T06:20:41.415Z,8.40
2022-10-05T06:23:15.544Z,8.03
2022-10-05T06:25:49.915Z,7.97
2022-10-05T06:28:17.974Z,8.30
2022-10-05T06:30:48.926Z,9.03
2022-10-05T06:33:24.263Z,8.13
2022-10-05T06:36:01.724Z,8.37
2022-10-05T06:38:39.763Z,8.50
2022-10-05T06:41:12.908Z,8.57
2022-10-05T06:43:45.812Z,9.10
2022-10-05T06:46:17.248Z,8.47
2022-10-05T06:49:03.173Z,7.80
2022-10-05T06:51:34.045Z,8.60
2022-10-05T06:54:09.548Z,8.33
2022-10-05T06:56:41.482Z,8.37
2022-10-05T06:59:12.911Z,8.63
2022-10-05T07:01:47.285Z,7.47
2022-10-05T07:04:41.538Z,8.07
2022-10-05T07:07:13.551Z,7.60
2022-10-05T07:09:48.160Z,6.67
2022-10-05T07:12:22.922Z,6.03
2022-10-05T07:14:59.587Z,5.80
2022-10-05T07:17:33.413Z,6.07
2022-10-05T07:20:05.223Z,5.97
2022-10-05T07:23:00.330Z,5.90
2022-10-05T07:25:33.136Z,4.90
2022-10-05T07:28:05.122Z,4.63
2022-10-05T07:30:37.304Z,4.73
2022-10-05T07:33:10.056Z,5.20
2022-10-05T07:35:55.721Z,6.70
2022-10-05T07:38:26.347Z,5.10
2022-10-05T07:40:58.648Z,5.17
2022-10-05T07:43:45.263Z,4.60
2022-10-05T07:46:21.822Z,5.17
2022-10-05T07:48:56.668Z,4.37
2022-10-05T07:51:30.537Z,4.43
2022-10-05T07:54:03.001Z,4.87
2022-10-05T07:56:35.934Z,4.60
2022-10-05T07:59:08.037Z,4.30
2022-10-05T08:01:36.920Z,4.83
2022-10-05T08:04:08.333Z,4.30
2022-10-05T08:06:46.156Z,4.27
2022-10-05T08:09:19.025Z,4.23
2022-10-05T08:11:52.879Z,4.07
2022-10-05T08:14:25.845Z,4.10
2022-10-05T08:16:55.571Z,3.63
2022-10-05T08:19:26.245Z,3.77
2022-10-05T08:21:57.329Z,3.77
2022-10-05T08:24:34.967Z,3.57
2022-10-05T08:27:06.559Z,3.83
2022-10-05T08:29:39.183Z,3.83
2022-10-05T08:32:12.727Z,3.47
2022-10-05T08:34:47.167Z,3.10
2022-10-05T08:37:18.043Z,3.07
2022-10-05T08:39:52.008Z,3.40
2022-10-05T08:42:34.519Z,2.93
2022-10-05T08:45:21.091Z,3.33
2022-10-05T08:47:59.631Z,3.13
2022-10-05T08:50:34.099Z,3.73
2022-10-05T08:53:20.737Z,2.77
2022-10-05T08:55:57.118Z,3.17
2022-10-05T08:58:38.094Z,3.23
2022-10-05T09:01:09.156Z,2.70
2022-10-05T09:03:47.940Z,3.23
2022-10-05T09:06:25.371Z,3.20
2022-10-05T09:09:23.484Z,2.67
2022-10-05T09:11:58.920Z,2.60
2022-10-05T09:15:01.332Z,2.53
2022-10-05T09:18:03.842Z,2.70
2022-10-05T09:20:33.389Z,3.53
2022-10-05T09:23:06.554Z,3.97
2022-10-05T09:25:43.936Z,2.40
2022-10-05T09:28:21.896Z,2.70
2022-10-05T09:30:58.212Z,2.57
2022-10-05T09:33:43.699Z,3.00
2022-10-05T09:36:26.438Z,2.40
2022-10-05T09:39:13.916Z,3.00
2022-10-05T09:42:00.063Z,3.00
2022-10-05T09:44:42.423Z,2.80
2022-10-05T09:47:28.165Z,2.93
2022-10-05T09:50:13.125Z,2.40
2022-10-05T09:52:52.338Z,2.63
2022-10-05T09:55:39.453Z,3.87
2022-10-05T09:58:28.550Z,2.80
2022-10-05T10:01:09.831Z,2.80
2022-10-05T10:04:08.252Z,3.13
2022-10-05T10:06:49.271Z,2.80
2022-10-05T10:09:23.157Z,2.60
2022-10-05T10:11:59.117Z,2.87
2022-10-05T10:14:41.921Z,2.73
2022-10-05T10:17:23.188Z,2.23
2022-10-05T10:19:59.327Z,2.13
2022-10-05T10:22:50.331Z,2.50
2022-10-05T10:25:34.995Z,4.57
2022-10-05T10:28:20.025Z,4.40
2022-10-05T10:31:02.978Z,2.77
2022-10-05T10:33:46.090Z,3.80
2022-10-05T10:36:19.426Z,4.97
2022-10-05T10:38:58.981Z,4.57
2022-10-05T10:41:41.901Z,3.87
2022-10-05T10:44:20.589Z,2.80
2022-10-05T10:46:54.373Z,2.73
2022-10-05T10:49:37.324Z,2.67
2022-10-05T10:52:23.145Z,3.00
2022-10-05T10:55:12.040Z,2.10
2022-10-05T10:57:50.221Z,1.60
2022-10-05T11:00:24.257Z,1.63
2022-10-05T11:03:08.648Z,1.90
2022-10-05T11:05:48.807Z,1.83
2022-10-05T11:08:28.953Z,1.63
2022-10-05T11:11:23.900Z,2.50
2022-10-05T11:14:07.163Z,1.73
2022-10-05T11:17:01.961Z,1.53
2022-10-05T11:20:03.711Z,1.73
2022-10-05T11:22:47.106Z,1.70
2022-10-05T11:25:29.035Z,1.70
2022-10-05T11:28:04.184Z,1.30
2022-10-05T11:30:51.351Z,1.70
2022-10-05T11:33:48.381Z,1.70
2022-10-05T11:36:27.250Z,1.40
2022-10-05T11:39:27.202Z,1.70
2022-10-05T11:42:05.384Z,1.40
2022-10-05T11:45:07.008Z,1.43
2022-10-05T11:47:38.971Z,1.77
2022-10-05T11:50:13.060Z,1.37
2022-10-05T11:52:45.057Z,2.07
2022-10-05T11:55:19.777Z,1.27
2022-10-05T11:57:52.328Z,1.30
2022-10-05T12:00:21.486Z,1.20
2022-10-05T12:03:10.489Z,1.23
2022-10-05T12:05:42.307Z,1.43
2022-10-05T12:08:18.289Z,1.10
2022-10-05T12:10:48.765Z,1.10
2022-10-05T12:13:23.553Z,1.60
2022-10-05T12:15:53.449Z,1.33
2022-10-05T12:18:23.785Z,1.20
2022-10-05T12:20:55.720Z,1.30
2022-10-05T12:23:26.544Z,1.17
2022-10-05T12:25:57.117Z,1.07
2022-10-05T12:28:31.305Z,1.20
2022-10-05T12:31:04.137Z,1.03
2022-10-05T12:33:35.589Z,1.13
2022-10-05T12:36:05.378Z,1.57
2022-10-05T12:38:36.512Z,1.10
2022-10-05T12:41:08.984Z,1.13
2022-10-05T12:43:45.151Z,1.00
2022-10-05T12:46:21.264Z,0.80
2022-10-05T12:48:56.413Z,1.10
2022-10-05T12:51:30.600Z,1.30
2022-10-05T12:54:00.492Z,1.20
2022-10-05T12:56:36.206Z,1.37
2022-10-05T12:59:09.681Z,1.03
2022-10-05T13:01:40.982Z,1.13
2022-10-05T13:04:18.631Z,1.10
2022-10-05T13:06:49.569Z,0.90
2022-10-05T13:09:20.106Z,0.93
2022-10-05T13:11:50.048Z,0.90
2022-10-05T13:14:36.075Z,0.80
2022-10-05T13:17:07.122Z,1.00
2022-10-05T13:19:39.409Z,1.30
2022-10-05T13:22:22.786Z,0.90
2022-10-05T13:24:55.829Z,0.97
2022-10-05T13:27:27.831Z,1.40
2022-10-05T13:30:00.874Z,1.00
2022-10-05T13:32:31.819Z,0.97
2022-10-05T13:35:02.738Z,1.20
2022-10-05T13:37:35.482Z,0.93
2022-10-05T13:40:12.996Z,1.00
2022-10-05T13:42:44.852Z,1.00
2022-10-05T13:45:17.258Z,0.70
2022-10-05T13:47:49.884Z,1.00
2022-10-05T13:50:18.952Z,1.03
2022-10-05T13:52:52.453Z,0.90
2022-10-05T13:55:28.456Z,1.20
2022-10-05T13:58:05.948Z,1.00
2022-10-05T14:00:41.988Z,1.20
2022-10-05T14:03:24.943Z,1.00
2022-10-05T14:05:57.679Z,0.90
2022-10-05T14:08:28.291Z,1.03
2022-10-05T14:10:57.095Z,1.23
2022-10-05T14:13:30.685Z,0.80
2022-10-05T14:16:04.762Z,1.00
2022-10-05T14:18:34.250Z,1.07
2022-10-05T14:21:03.232Z,0.93
2022-10-05T14:23:31.415Z,0.90
2022-10-05T14:25:59.625Z,1.20
2022-10-05T14:28:30.878Z,0.97
2022-10-05T14:31:00.775Z,0.73
2022-10-05T14:33:30.093Z,1.10
2022-10-05T14:35:58.628Z,0.80
2022-10-05T14:38:28.859Z,0.80
2022-10-05T14:41:15.796Z,1.20
2022-10-05T14:43:50.459Z,0.83
2022-10-05T14:46:28.149Z,1.10
2022-10-05T14:49:22.687Z,1.07
2022-10-05T14:51:50.856Z,1.20
2022-10-05T14:54:27.605Z,1.10
2022-10-05T14:56:59.604Z,0.83
2022-10-05T14:59:35.610Z,1.57
2022-10-05T15:02:14.526Z,1.37
2022-10-05T15:04:45.526Z,2.97
2022-10-05T15:07:21.877Z,1.30
2022-10-05T15:10:05.971Z,1.50
2022-10-05T15:12:34.780Z,0.90
2022-10-05T15:15:05.863Z,1.00
2022-10-05T15:17:40.298Z,1.40
2022-10-05T15:20:18.097Z,1.50
2022-10-05T15:22:50.346Z,1.20
2022-10-05T15:25:23.319Z,1.10
2022-10-05T15:28:08.925Z,1.10
2022-10-05T15:30:39.546Z,0.93
2022-10-05T15:33:13.078Z,0.83
2022-10-05T15:35:45.390Z,1.10
2022-10-05T15:38:20.853Z,7.63
2022-10-05T15:40:54.926Z,4.07
2022-10-05T15:43:24.272Z,1.20
2022-10-05T15:45:57.348Z,1.27
2022-10-05T15:48:29.278Z,0.90
2022-10-05T15:51:07.145Z,1.20
2022-10-05T15:53:38.483Z,1.13
2022-10-05T15:56:08.620Z,1.00
2022-10-05T15:58:54.520Z,1.10
2022-10-05T16:01:30.476Z,1.27
2022-10-05T16:04:03.316Z,0.93
2022-10-05T16:06:56.759Z,1.20
2022-10-05T16:09:33.525Z,1.07
2022-10-05T16:12:08.814Z,0.90
2022-10-05T16:14:43.957Z,1.10
2022-10-05T16:17:24.284Z,1.03
2022-10-05T16:20:03.333Z,1.00
2022-10-05T16:22:43.227Z,1.00
2022-10-05T16:25:15.103Z,0.97
2022-10-05T16:28:02.964Z,1.03
2022-10-05T16:30:40.810Z,0.73
2022-10-05T16:33:19.248Z,1.00
2022-10-05T16:35:52.889Z,1.00
2022-10-05T16:38:24.820Z,1.13
2022-10-05T16:41:01.947Z,1.00
2022-10-05T16:43:34.638Z,1.10
2022-10-05T16:46:10.077Z,0.90
2022-10-05T16:48:41.500Z,0.80
2022-10-05T16:51:15.152Z,0.80
2022-10-05T16:53:44.829Z,1.07
2022-10-05T16:56:15.742Z,1.20
2022-10-05T16:58:55.487Z,1.10
2022-10-05T17:01:30.116Z,1.00
2022-10-05T17:04:07.383Z,1.30
2022-10-05T17:06:44.769Z,0.90
2022-10-05T17:09:27.736Z,0.90
2022-10-05T17:11:59.281Z,1.47
2022-10-05T17:14:33.380Z,1.00
2022-10-05T17:17:16.237Z,1.17
2022-10-05T17:19:49.627Z,1.27
2022-10-05T17:22:25.116Z,1.00
2022-10-05T17:25:00.541Z,1.17
2022-10-05T17:27:33.695Z,1.23
2022-10-05T17:30:21.954Z,1.20
2022-10-05T17:32:56.710Z,0.90
2022-10-05T17:35:39.518Z,1.03
2022-10-05T17:38:22.539Z,1.00
2022-10-05T17:41:06.405Z,1.30
2022-10-05T17:43:35.071Z,1.33
2022-10-05T17:46:03.624Z,1.10
2022-10-05T17:48:54.316Z,0.90
2022-10-05T17:51:58.599Z,1.03
2022-10-05T17:54:48.153Z,1.17
2022-10-05T17:57:20.602Z,1.20
2022-10-05T17:59:57.244Z,1.27
2022-10-05T18:02:39.212Z,1.07
2022-10-05T18:05:16.678Z,1.20
2022-10-05T18:07:48.366Z,1.40
2022-10-05T18:10:29.104Z,0.90
2022-10-05T18:13:12.071Z,1.30
2022-10-05T18:15:46.159Z,1.40
2022-10-05T18:18:36.056Z,1.00
2022-10-05T18:21:10.101Z,1.13
2022-10-05T18:23:38.377Z,1.27
2022-10-05T18:26:09.316Z,1.30
2022-10-05T18:28:43.067Z,1.20
2022-10-05T18:31:18.607Z,0.93
2022-10-05T18:33:54.916Z,1.43
2022-10-05T18:36:28.845Z,1.10
2022-10-05T18:39:01.591Z,1.20
2022-10-05T18:41:40.630Z,1.20
2022-10-05T18:44:20.463Z,1.60
2022-10-05T18:46:51.787Z,1.10
2022-10-05T18:49:30.548Z,1.20
2022-10-05T18:52:03.514Z,1.37
2022-10-05T18:54:37.828Z,1.50
2022-10-05T18:57:15.951Z,1.40
2022-10-05T18:59:47.365Z,1.43
2022-10-05T19:02:20.859Z,1.47
2022-10-05T19:04:53.973Z,1.20
2022-10-05T19:07:27.987Z,1.43
2022-10-05T19:10:02.665Z,1.70
2022-10-05T19:12:41.377Z,1.33
2022-10-05T19:15:17.779Z,1.70
2022-10-05T19:18:06.092Z,1.23
2022-10-05T19:20:37.508Z,1.40
2022-10-05T19:23:15.581Z,1.90
2022-10-05T19:25:48.363Z,1.57
2022-10-05T19:28:23.152Z,1.47
2022-10-05T19:31:04.641Z,1.40
2022-10-05T19:33:33.956Z,1.70
2022-10-05T19:36:06.618Z,2.10
2022-10-05T19:38:40.357Z,1.40
2022-10-05T19:41:14.064Z,2.00
2022-10-05T19:43:54.361Z,1.67
2022-10-05T19:46:30.989Z,1.70
2022-10-05T19:49:00.419Z,1.50
2022-10-05T19:51:30.728Z,1.70
2022-10-05T19:54:01.573Z,2.00
2022-10-05T19:56:31.184Z,1.67
2022-10-05T19:59:13.352Z,1.73
2022-10-05T20:01:43.798Z,1.50
2022-10-05T20:04:11.921Z,1.50
2022-10-05T20:06:40.556Z,1.70
2022-10-05T20:09:20.429Z,1.80
2022-10-05T20:11:52.306Z,1.87
2022-10-05T20:14:22.993Z,1.70
2022-10-05T20:17:27.883Z,1.90
2022-10-05T20:20:13.539Z,1.50
2022-10-05T20:22:46.581Z,1.50
2022-10-05T20:25:31.050Z,2.00
2022-10-05T20:27:59.075Z,1.77
2022-10-05T20:30:29.224Z,1.80
2022-10-05T20:32:59.741Z,1.93
2022-10-05T20:35:29.607Z,1.50
2022-10-05T20:37:59.509Z,1.80
2022-10-05T20:40:27.799Z,1.83
2022-10-05T20:42:55.853Z,2.00
2022-10-05T20:45:23.834Z,1.67
2022-10-05T20:47:53.278Z,2.10
2022-10-05T20:50:22.349Z,2.10
2022-10-05T20:52:50.361Z,2.30
2022-10-05T20:55:18.501Z,1.93
2022-10-05T20:57:47.481Z,1.80
2022-10-05T21:00:15.616Z,1.27
2022-10-05T21:02:43.589Z,2.10
2022-10-05T21:05:13.079Z,1.93
2022-10-05T21:07:41.226Z,1.90
2022-10-05T21:10:10.381Z,1.77
2022-10-05T21:12:38.436Z,2.10
2022-10-05T21:15:07.141Z,1.67
2022-10-05T21:17:38.212Z,1.83
2022-10-05T21:20:06.571Z,1.83
2022-10-05T21:22:36.535Z,2.17
2022-10-05T21:25:04.663Z,2.10
2022-10-05T21:27:32.645Z,2.17
2022-10-05T21:30:00.730Z,1.80
2022-10-05T21:32:28.692Z,2.13
2022-10-05T21:34:57.415Z,2.30
2022-10-05T21:37:25.429Z,2.13
2022-10-05T21:39:54.836Z,1.60
2022-10-05T21:42:23.559Z,2.00
2022-10-05T21:44:51.757Z,1.90
2022-10-05T21:47:19.817Z,2.43
2022-10-05T21:49:47.848Z,1.80
2022-10-05T21:52:15.835Z,1.97
2022-10-05T21:54:43.845Z,2.43
2022-10-05T21:57:14.858Z,1.67
2022-10-05T21:59:43.819Z,2.03
2022-10-05T22:02:11.898Z,2.00
2022-10-05T22:04:39.882Z,2.20
2022-10-05T22:07:11.112Z,2.10
2022-10-05T22:09:39.137Z,1.80
2022-10-05T22:12:07.159Z,2.00
2022-10-05T22:14:36.607Z,1.80
2022-10-05T22:17:05.282Z,1.90
2022-10-05T22:19:33.323Z,1.90
2022-10-05T22:22:01.350Z,2.20
2022-10-05T22:24:29.330Z,2.17
2022-10-05T22:26:57.428Z,1.60
2022-10-05T22:29:25.450Z,1.90
2022-10-05T22:31:56.200Z,1.90
2022-10-05T22:34:24.255Z,1.87
2022-10-05T22:36:52.255Z,2.20
2022-10-05T22:39:20.301Z,2.13
2022-10-05T22:41:48.853Z,1.90
2022-10-05T22:44:17.083Z,2.03
2022-10-05T22:46:45.150Z,1.87
2022-10-05T22:49:14.547Z,2.20
2022-10-05T22:51:42.579Z,2.00
2022-10-05T22:54:10.610Z,2.17
2022-10-05T22:56:38.648Z,1.83
2022-10-05T22:59:06.617Z,2.43
2022-10-05T23:01:34.730Z,2.20
2022-10-05T23:04:02.889Z,2.17
2022-10-05T23:06:32.586Z,2.13
2022-10-05T23:09:00.628Z,1.93
2022-10-05T23:11:30.326Z,1.80
2022-10-05T23:13:59.988Z,2.10
2022-10-05T23:16:28.889Z,1.93
2022-10-05T23:18:57.269Z,2.67
2022-10-05T23:21:26.385Z,2.17
2022-10-05T23:23:55.863Z,2.23
2022-10-05T23:26:24.768Z,1.90
2022-10-05T23:28:52.998Z,2.27
2022-10-05T23:31:22.027Z,2.17
2022-10-05T23:33:50.072Z,2.27
2022-10-05T23:36:19.584Z,2.20
2022-10-05T23:38:47.621Z,2.03
2022-10-05T23:41:17.375Z,1.80
2022-10-05T23:43:45.398Z,2.23
2022-10-05T23:46:13.612Z,2.23
2022-10-05T23:48:41.693Z,1.80
2022-10-05T23:51:10.947Z,2.10
2022-10-05T23:53:38.942Z,2.03
2022-10-05T23:56:07.170Z,2.10
2022-10-05T23:58:36.600Z,2.30
